Time;durP1;ratioP1;P1;durP2;ratioP2;P2;SDS_P1;SDS_P2;PMS_P1;PMS_P2;Temp;Humidity;BMP_temperature;BMP_pressure;BME280_temperature;BME280_humidity;BME280_pressure;Samples;Min_cycle;Max_cycle;Signal;HPM_P1;HPM_P2
2023/04/30 00:00:51;;;;;;;27.83;19.97;;;10.10;99.90;;;;;;4953825;28;20568;-72
2023/04/30 00:03:17;;;;;;;25.63;19.53;;;10.00;99.90;;;;;;4953665;28;20466;-72
2023/04/30 00:05:44;;;;;;;25.07;18.27;;;10.00;99.90;;;;;;4953464;28;20466;-72
2023/04/30 00:08:10;;;;;;;29.70;18.70;;;9.90;99.90;;;;;;4953820;28;20942;-72
2023/04/30 00:10:38;;;;;;;25.57;18.97;;;9.80;99.90;;;;;;4953636;28;20481;-72
2023/04/30 00:13:05;;;;;;;26.13;18.93;;;9.80;99.90;;;;;;4953605;28;20461;-72
2023/04/30 00:15:32;;;;;;;23.70;18.00;;;9.70;99.90;;;;;;4953098;28;20505;-72
2023/04/30 00:17:58;;;;;;;30.37;19.83;;;9.60;99.90;;;;;;4953363;28;20458;-72
2023/04/30 00:20:25;;;;;;;28.60;20.53;;;9.60;99.90;;;;;;4953394;28;21292;-72
2023/04/30 00:22:52;;;;;;;31.23;20.57;;;9.50;99.90;;;;;;4953096;28;20454;-72
2023/04/30 00:25:19;;;;;;;24.30;18.80;;;9.50;99.90;;;;;;4953291;28;20501;-72
2023/04/30 00:27:47;;;;;;;26.13;20.03;;;9.50;99.90;;;;;;4953026;28;20468;-72
2023/04/30 00:30:14;;;;;;;30.70;19.93;;;9.40;99.90;;;;;;4953251;28;20541;-72
2023/04/30 00:32:41;;;;;;;32.43;22.40;;;9.40;99.90;;;;;;4953018;28;20833;-72
2023/04/30 00:35:08;;;;;;;44.03;26.50;;;9.40;99.90;;;;;;4953396;28;20458;-72
2023/04/30 00:37:34;;;;;;;48.23;28.90;;;9.30;99.90;;;;;;4952946;28;20465;-72
2023/04/30 00:40:01;;;;;;;37.83;25.47;;;9.30;99.90;;;;;;4952417;28;20497;-72
2023/04/30 00:42:28;;;;;;;27.27;20.60;;;9.20;99.90;;;;;;4953032;28;20491;-72
2023/04/30 00:44:55;;;;;;;31.23;21.60;;;9.20;99.90;;;;;;4952762;28;20509;-72
2023/04/30 00:47:22;;;;;;;32.00;21.97;;;9.20;99.90;;;;;;4953238;28;20458;-72
2023/04/30 00:49:49;;;;;;;34.77;20.70;;;9.20;99.90;;;;;;4953104;28;20477;-72
2023/04/30 00:52:16;;;;;;;29.67;21.33;;;9.10;99.90;;;;;;4953226;28;20449;-72
2023/04/30 00:54:42;;;;;;;31.30;21.53;;;9.10;99.90;;;;;;4952243;28;20946;-72
2023/04/30 00:57:12;;;;;;;37.37;22.00;;;9.10;99.90;;;;;;4952955;28;20470;-72
2023/04/30 00:59:39;;;;;;;34.10;22.20;;;9.00;99.90;;;;;;4952097;28;20494;-73
2023/04/30 01:02:08;;;;;;;34.07;22.40;;;9.00;99.90;;;;;;4953160;28;20462;-72
2023/04/30 01:04:35;;;;;;;31.63;20.40;;;8.90;99.90;;;;;;4952582;28;21002;-72
2023/04/30 01:07:02;;;;;;;31.57;22.50;;;8.90;99.90;;;;;;4952648;28;20512;-72
2023/04/30 01:09:29;;;;;;;29.57;20.87;;;8.90;99.90;;;;;;4952055;28;20505;-72
2023/04/30 01:12:06;;;;;;;27.23;20.73;;;8.80;99.90;;;;;;4952623;28;20513;-72
2023/04/30 01:14:40;;;;;;;32.23;21.40;;;8.80;99.90;;;;;;4952193;28;20458;-72
2023/04/30 01:17:18;;;;;;;35.33;21.73;;;8.80;99.90;;;;;;4952697;28;21195;-72
2023/04/30 01:19:46;;;;;;;31.43;21.70;;;8.80;99.90;;;;;;4952031;28;20877;-72
2023/04/30 01:22:23;;;;;;;31.60;22.30;;;8.80;99.90;;;;;;4952525;28;20510;-72
2023/04/30 01:25:07;;;;;;;38.70;21.50;;;8.80;99.90;;;;;;4952199;28;20454;-72
2023/04/30 01:27:57;;;;;;;35.33;22.67;;;8.70;99.90;;;;;;4952557;28;20500;-72
2023/04/30 01:30:25;;;;;;;32.40;21.43;;;8.70;99.90;;;;;;4952116;28;20513;-72
2023/04/30 01:32:51;;;;;;;34.77;23.33;;;8.70;99.90;;;;;;4952499;28;20489;-73
2023/04/30 01:35:18;;;;;;;30.83;22.10;;;8.70;99.90;;;;;;4951710;28;20454;-72
2023/04/30 01:37:58;;;;;;;31.27;22.53;;;8.60;99.90;;;;;;4952172;28;20989;-72
2023/04/30 01:40:32;;;;;;;38.80;23.40;;;8.60;99.90;;;;;;4952350;28;20493;-72
2023/04/30 01:43:10;;;;;;;33.47;23.60;;;8.60;99.90;;;;;;4950801;28;21053;-72
2023/04/30 01:46:01;;;;;;;32.20;22.20;;;8.50;99.90;;;;;;4951143;28;20866;-72
2023/04/30 01:48:38;;;;;;;32.87;22.70;;;8.50;99.90;;;;;;4952243;28;20525;-72
2023/04/30 01:51:10;;;;;;;34.90;23.20;;;8.50;99.90;;;;;;4945101;28;20488;-72
2023/04/30 01:53:41;;;;;;;33.07;23.23;;;8.40;99.90;;;;;;4952105;28;20461;-72
2023/04/30 01:56:12;;;;;;;34.53;23.20;;;8.40;99.90;;;;;;4951754;28;20458;-72
2023/04/30 01:58:40;;;;;;;34.77;23.40;;;8.30;99.90;;;;;;4952077;28;20513;-72
2023/04/30 02:01:07;;;;;;;36.63;24.97;;;8.30;99.90;;;;;;4951577;28;20493;-72
2023/04/30 02:03:34;;;;;;;34.10;24.20;;;8.20;99.90;;;;;;4951034;28;21022;-72
2023/04/30 02:06:00;;;;;;;38.30;23.80;;;8.20;99.90;;;;;;4951749;28;20521;-72
2023/04/30 02:08:27;;;;;;;38.50;24.80;;;8.20;99.90;;;;;;4952022;28;20771;-72
2023/04/30 02:10:53;;;;;;;37.73;25.43;;;8.20;99.90;;;;;;4951901;28;20995;-72
2023/04/30 02:13:20;;;;;;;36.90;24.23;;;8.20;99.90;;;;;;4952074;28;20465;-72
2023/04/30 02:15:48;;;;;;;41.90;23.97;;;8.20;99.90;;;;;;4951223;28;20501;-72
2023/04/30 02:18:15;;;;;;;36.00;23.47;;;8.10;99.90;;;;;;4952155;28;20517;-72
2023/04/30 02:20:42;;;;;;;33.70;23.47;;;8.10;99.90;;;;;;4951764;28;20584;-72
2023/04/30 02:23:09;;;;;;;35.97;23.37;;;8.00;99.90;;;;;;4951824;28;20474;-72
2023/04/30 02:25:37;;;;;;;35.40;23.30;;;8.00;99.90;;;;;;4951855;28;20869;-72
2023/04/30 02:28:04;;;;;;;37.07;24.40;;;7.90;99.90;;;;;;4948473;28;20990;-72
2023/04/30 02:30:31;;;;;;;41.07;26.30;;;7.90;99.90;;;;;;4951502;28;20517;-72
2023/04/30 02:32:59;;;;;;;42.33;25.13;;;7.90;99.90;;;;;;4951653;28;21302;-72
2023/04/30 02:35:25;;;;;;;41.70;25.30;;;7.90;99.90;;;;;;4951825;28;20483;-72
2023/04/30 02:37:52;;;;;;;40.37;26.60;;;7.90;99.90;;;;;;4951543;28;21025;-72
2023/04/30 02:40:18;;;;;;;49.30;25.80;;;7.90;99.90;;;;;;4951785;28;20533;-72
2023/04/30 02:42:45;;;;;;;36.57;25.77;;;7.80;99.90;;;;;;4951841;28;20458;-73
2023/04/30 02:45:12;;;;;;;39.80;25.43;;;7.80;99.90;;;;;;4952384;28;20509;-72
2023/04/30 02:47:38;;;;;;;48.73;26.10;;;7.80;99.90;;;;;;4955370;28;20461;-72
2023/04/30 02:50:07;;;;;;;45.53;26.20;;;7.80;99.90;;;;;;4955281;28;20469;-72
2023/04/30 02:52:34;;;;;;;47.80;26.23;;;7.70;99.90;;;;;;4954919;28;20523;-72
2023/04/30 02:55:01;;;;;;;48.27;27.80;;;7.70;99.90;;;;;;4954733;28;20517;-72
2023/04/30 02:57:27;;;;;;;43.90;25.87;;;7.70;99.90;;;;;;4954784;28;20981;-72
2023/04/30 02:59:54;;;;;;;41.07;26.33;;;7.70;99.90;;;;;;4954703;28;20481;-72
2023/04/30 03:02:22;;;;;;;42.50;27.47;;;7.70;99.90;;;;;;4955185;28;20998;-72
2023/04/30 03:04:49;;;;;;;45.33;27.83;;;7.60;99.90;;;;;;4954931;28;20454;-72
2023/04/30 03:07:17;;;;;;;45.47;28.77;;;7.60;99.90;;;;;;4954864;28;20532;-72
2023/04/30 03:09:44;;;;;;;42.90;27.43;;;7.60;99.90;;;;;;4954665;28;20480;-73
2023/04/30 03:12:11;;;;;;;52.20;28.70;;;7.50;99.90;;;;;;4954475;28;20466;-72
2023/04/30 03:14:38;;;;;;;42.60;26.83;;;7.50;99.90;;;;;;4954536;28;20509;-72
2023/04/30 03:17:04;;;;;;;49.07;29.80;;;7.50;99.90;;;;;;4952873;28;20480;-73
2023/04/30 03:19:31;;;;;;;44.63;27.77;;;7.40;99.90;;;;;;4954568;28;20482;-72
2023/04/30 03:21:58;;;;;;;48.13;29.63;;;7.40;99.90;;;;;;4954298;28;20500;-72
2023/04/30 03:24:26;;;;;;;45.63;29.00;;;7.40;99.90;;;;;;4954485;28;20466;-72
2023/04/30 03:26:52;;;;;;;47.77;28.83;;;7.40;99.90;;;;;;4954567;28;20464;-72
2023/04/30 03:29:19;;;;;;;46.77;29.20;;;7.40;99.90;;;;;;4954428;28;20485;-72
2023/04/30 03:31:45;;;;;;;47.70;30.60;;;7.40;99.90;;;;;;4954437;28;20879;-72
2023/04/30 03:34:12;;;;;;;51.27;31.70;;;7.40;99.90;;;;;;4954185;28;20466;-72
2023/04/30 03:36:39;;;;;;;48.90;30.03;;;7.30;99.90;;;;;;4954177;28;20469;-72
2023/04/30 03:39:08;;;;;;;46.10;30.27;;;7.30;99.90;;;;;;4946771;28;20974;-72
2023/04/30 03:41:36;;;;;;;47.27;30.27;;;7.30;99.90;;;;;;4954263;28;20493;-72
2023/04/30 03:44:03;;;;;;;53.30;31.13;;;7.20;99.90;;;;;;4954272;28;20450;-72
2023/04/30 03:46:30;;;;;;;49.97;31.27;;;7.30;99.90;;;;;;4954211;28;20541;-72
2023/04/30 03:48:56;;;;;;;48.80;29.97;;;7.20;99.90;;;;;;4954085;28;20462;-72
2023/04/30 03:51:23;;;;;;;48.53;29.80;;;7.20;99.90;;;;;;4953519;28;20485;-72
2023/04/30 03:53:50;;;;;;;51.70;30.07;;;7.20;99.90;;;;;;4954028;28;20551;-72
2023/04/30 03:56:16;;;;;;;53.50;31.63;;;7.10;99.90;;;;;;4953520;28;20816;-73
2023/04/30 03:58:44;;;;;;;46.57;29.30;;;7.10;99.90;;;;;;4953500;28;20460;-72
2023/04/30 04:01:11;;;;;;;52.27;31.27;;;7.10;99.90;;;;;;4953408;28;20499;-72
2023/04/30 04:03:38;;;;;;;51.97;29.90;;;7.10;99.90;;;;;;4953922;28;20512;-72
2023/04/30 04:06:04;;;;;;;47.00;29.97;;;7.10;99.90;;;;;;4953262;28;20465;-72
2023/04/30 04:08:32;;;;;;;45.67;29.07;;;7.00;99.90;;;;;;4954102;28;20468;-72
2023/04/30 04:10:59;;;;;;;50.60;28.93;;;7.00;99.90;;;;;;4953088;28;20568;-72
2023/04/30 04:13:26;;;;;;;48.17;29.97;;;7.00;99.90;;;;;;4953940;28;20457;-72
2023/04/30 04:15:54;;;;;;;54.33;30.40;;;7.00;99.90;;;;;;4952521;28;20461;-72
2023/04/30 04:18:20;;;;;;;51.60;31.77;;;7.00;99.90;;;;;;4953642;28;20807;-72
2023/04/30 04:20:47;;;;;;;51.73;29.73;;;6.90;99.90;;;;;;4953263;28;20548;-73
2023/04/30 04:23:14;;;;;;;47.87;30.50;;;6.90;99.90;;;;;;4953542;28;21004;-72
2023/04/30 04:25:40;;;;;;;51.50;30.57;;;6.90;99.90;;;;;;4952989;28;20468;-73
2023/04/30 04:28:07;;;;;;;51.43;30.30;;;7.00;99.90;;;;;;4945568;28;20508;-72
2023/04/30 04:30:33;;;;;;;50.43;30.20;;;6.90;99.90;;;;;;4953306;28;20547;-72
2023/04/30 04:33:01;;;;;;;53.17;31.03;;;6.90;99.90;;;;;;4953150;28;20467;-72
2023/04/30 04:35:28;;;;;;;49.27;29.60;;;6.90;99.90;;;;;;4953151;28;20946;-73
2023/04/30 04:37:55;;;;;;;51.57;29.67;;;6.90;99.90;;;;;;4953178;28;20490;-72
2023/04/30 04:40:21;;;;;;;49.63;29.17;;;6.90;99.90;;;;;;4953211;28;20986;-72
2023/04/30 04:42:50;;;;;;;47.23;27.80;;;6.90;99.90;;;;;;4952828;28;20472;-72
2023/04/30 04:45:18;;;;;;;47.23;28.90;;;6.90;99.90;;;;;;4953161;28;20465;-72
2023/04/30 04:47:44;;;;;;;55.13;28.57;;;7.00;99.90;;;;;;4952856;28;20469;-72
2023/04/30 04:50:13;;;;;;;49.40;28.87;;;7.00;99.90;;;;;;4953063;28;20493;-72
2023/04/30 04:52:39;;;;;;;47.97;30.30;;;7.00;99.90;;;;;;4953281;28;20453;-72
2023/04/30 04:55:07;;;;;;;50.73;30.57;;;7.10;99.90;;;;;;4952507;28;20457;-72
2023/04/30 04:57:33;;;;;;;48.60;29.43;;;7.10;99.90;;;;;;4952519;28;20465;-72
2023/04/30 05:00:00;;;;;;;46.47;27.33;;;7.10;99.90;;;;;;4952517;28;20825;-72
2023/04/30 05:02:26;;;;;;;43.17;28.57;;;7.10;99.90;;;;;;4952701;28;20560;-72
2023/04/30 05:04:53;;;;;;;40.87;26.60;;;7.20;99.90;;;;;;4952681;28;20464;-72
2023/04/30 05:07:21;;;;;;;47.53;28.13;;;7.20;99.90;;;;;;4952902;28;20578;-72
2023/04/30 05:09:48;;;;;;;41.83;26.30;;;7.20;99.90;;;;;;4951339;28;20902;-72
2023/04/30 05:12:14;;;;;;;46.73;27.83;;;7.30;99.90;;;;;;4952575;28;20515;-72
2023/04/30 05:14:41;;;;;;;42.30;26.17;;;7.40;99.90;;;;;;4952164;28;21253;-72
2023/04/30 05:17:08;;;;;;;48.27;26.00;;;7.50;99.90;;;;;;4952374;28;20469;-72
2023/04/30 05:19:35;;;;;;;45.10;26.40;;;7.60;99.90;;;;;;4952634;28;20485;-72
2023/04/30 05:22:01;;;;;;;43.97;25.80;;;7.70;99.90;;;;;;4952165;28;21000;-72
2023/04/30 05:24:29;;;;;;;43.47;24.83;;;7.70;99.90;;;;;;4952798;28;20520;-72
2023/04/30 05:26:56;;;;;;;40.03;24.40;;;7.90;99.90;;;;;;4952154;28;20458;-72
2023/04/30 05:29:23;;;;;;;37.30;24.10;;;7.90;99.90;;;;;;4952481;28;20532;-72
2023/04/30 05:31:49;;;;;;;45.30;24.90;;;8.00;99.90;;;;;;4951980;28;20509;-72
2023/04/30 05:34:16;;;;;;;40.33;25.30;;;8.10;99.90;;;;;;4952431;28;20461;-72
2023/04/30 05:36:43;;;;;;;39.63;23.87;;;8.20;99.90;;;;;;4951779;28;20556;-73
2023/04/30 05:39:10;;;;;;;40.40;23.20;;;8.30;99.90;;;;;;4952193;28;20460;-70
2023/04/30 05:41:38;;;;;;;41.23;23.70;;;8.40;99.90;;;;;;4951962;28;21010;-70
2023/04/30 05:44:05;;;;;;;35.60;22.57;;;8.60;99.90;;;;;;4952266;28;20520;-70
2023/04/30 05:46:32;;;;;;;35.80;23.10;;;8.90;99.90;;;;;;4951549;28;21205;-70
2023/04/30 05:48:59;;;;;;;36.40;21.97;;;9.10;99.90;;;;;;4952268;28;20454;-70
2023/04/30 05:51:26;;;;;;;32.47;22.07;;;9.30;99.90;;;;;;4952175;28;20946;-70
2023/04/30 05:53:53;;;;;;;29.60;20.33;;;9.60;99.90;;;;;;4952038;28;20454;-70
2023/04/30 05:56:20;;;;;;;29.63;19.93;;;9.90;99.90;;;;;;4951350;28;20485;-70
2023/04/30 05:58:49;;;;;;;37.80;20.07;;;10.10;99.90;;;;;;4951842;28;20864;-69
2023/04/30 06:01:18;;;;;;;33.33;18.87;;;10.30;99.90;;;;;;4951836;28;20585;-71
2023/04/30 06:03:44;;;;;;;27.10;19.47;;;10.40;99.90;;;;;;4951680;28;20484;-70
2023/04/30 06:06:11;;;;;;;28.03;18.40;;;10.60;99.90;;;;;;4951756;28;20474;-70
2023/04/30 06:08:40;;;;;;;28.77;18.87;;;10.80;99.90;;;;;;4951890;28;21009;-71
2023/04/30 06:11:07;;;;;;;28.07;17.57;;;11.00;99.90;;;;;;4951576;28;20832;-70
2023/04/30 06:13:34;;;;;;;30.07;17.87;;;11.20;99.90;;;;;;4950760;28;20454;-70
2023/04/30 06:16:02;;;;;;;27.40;17.40;;;11.40;99.90;;;;;;4951231;28;20704;-71
2023/04/30 06:18:28;;;;;;;26.57;17.93;;;11.60;99.90;;;;;;4952007;28;20741;-70
2023/04/30 06:20:55;;;;;;;34.30;19.57;;;11.50;99.90;;;;;;4950382;28;20896;-70
2023/04/30 06:23:22;;;;;;;25.53;16.93;;;11.40;99.90;;;;;;4954972;28;20486;-71
2023/04/30 06:25:48;;;;;;;27.77;16.80;;;11.50;99.90;;;;;;4954381;28;20464;-70
2023/04/30 06:28:15;;;;;;;24.77;16.50;;;11.70;99.90;;;;;;4954501;28;20842;-71
2023/04/30 06:30:42;;;;;;;24.13;17.37;;;11.80;99.90;;;;;;4955037;28;20485;-70
2023/04/30 06:33:10;;;;;;;21.57;16.40;;;11.90;99.90;;;;;;4960909;28;20461;-69
2023/04/30 06:35:36;;;;;;;23.20;15.97;;;12.10;99.90;;;;;;4954712;28;20449;-69
2023/04/30 06:38:03;;;;;;;23.63;16.03;;;12.30;99.90;;;;;;4954616;28;20523;-70
2023/04/30 06:40:29;;;;;;;22.67;16.00;;;12.50;99.90;;;;;;4954629;28;20508;-69
2023/04/30 06:42:56;;;;;;;21.67;15.93;;;12.60;99.90;;;;;;4954481;28;21080;-70
2023/04/30 06:45:23;;;;;;;25.07;16.93;;;12.60;99.90;;;;;;4954514;28;20465;-68
2023/04/30 06:47:50;;;;;;;26.80;16.30;;;12.70;99.90;;;;;;4954310;28;20504;-69
2023/04/30 06:50:20;;;;;;;23.47;14.77;;;12.80;99.90;;;;;;4955233;28;20573;-69
2023/04/30 06:52:46;;;;;;;23.20;15.77;;;12.80;99.90;;;;;;4955039;28;20517;-70
2023/04/30 06:55:13;;;;;;;21.97;16.43;;;12.90;99.90;;;;;;4954102;28;20457;-70
2023/04/30 06:57:40;;;;;;;22.87;15.80;;;13.00;99.90;;;;;;4954771;28;20873;-70
2023/04/30 07:00:07;;;;;;;24.97;15.93;;;13.10;99.90;;;;;;4954335;28;20481;-70
2023/04/30 07:02:34;;;;;;;24.50;17.10;;;13.20;99.90;;;;;;4954644;28;20507;-70
2023/04/30 07:05:01;;;;;;;25.03;16.20;;;13.30;99.90;;;;;;4954151;28;20493;-70
2023/04/30 07:07:30;;;;;;;23.00;16.07;;;13.30;99.90;;;;;;4954307;28;20548;-69
2023/04/30 07:09:56;;;;;;;20.70;15.90;;;13.40;99.90;;;;;;4953499;28;20484;-69
2023/04/30 07:12:23;;;;;;;21.33;15.50;;;13.40;99.90;;;;;;4955097;28;20450;-70
2023/04/30 07:14:49;;;;;;;22.70;16.00;;;13.40;99.90;;;;;;4953971;28;20461;-69
2023/04/30 07:17:16;;;;;;;23.23;15.57;;;13.50;99.90;;;;;;4954773;28;20974;-70
2023/04/30 07:19:43;;;;;;;22.90;14.60;;;13.60;99.90;;;;;;4954651;28;20885;-69
2023/04/30 07:22:10;;;;;;;20.33;15.40;;;13.70;99.90;;;;;;4954253;28;20493;-69
2023/04/30 07:24:38;;;;;;;20.13;14.23;;;13.90;99.90;;;;;;4953813;28;20460;-70
2023/04/30 07:27:06;;;;;;;20.57;13.43;;;14.20;99.90;;;;;;4951334;28;20795;-69
2023/04/30 07:29:32;;;;;;;18.60;14.20;;;14.40;99.90;;;;;;4950154;28;20492;-71
2023/04/30 07:31:59;;;;;;;21.10;13.33;;;14.60;99.90;;;;;;4953513;28;20513;-68
2023/04/30 07:34:26;;;;;;;22.60;13.90;;;14.80;99.90;;;;;;4942830;28;20464;-69
2023/04/30 07:36:53;;;;;;;17.60;13.33;;;15.00;99.90;;;;;;4952156;28;20468;-69
2023/04/30 07:39:20;;;;;;;20.33;13.13;;;15.10;99.90;;;;;;4953808;28;20478;-69
2023/04/30 07:41:48;;;;;;;22.13;14.27;;;15.20;99.90;;;;;;4953734;28;20548;-69
2023/04/30 07:44:14;;;;;;;18.57;12.97;;;15.40;99.90;;;;;;4953644;28;20466;-69
2023/04/30 07:46:41;;;;;;;19.97;12.83;;;15.60;99.90;;;;;;4953915;28;20457;-70
2023/04/30 07:49:07;;;;;;;17.10;12.07;;;15.50;99.90;;;;;;4952469;28;20529;-70
2023/04/30 07:51:34;;;;;;;19.97;13.53;;;15.60;99.90;;;;;;4952920;28;20458;-70
2023/04/30 07:54:01;;;;;;;15.50;12.57;;;15.70;99.90;;;;;;4949403;28;21055;-69
2023/04/30 07:56:28;;;;;;;19.20;12.20;;;15.60;99.90;;;;;;4952944;28;20877;-69
2023/04/30 07:58:56;;;;;;;17.67;12.80;;;15.60;99.90;;;;;;4953845;28;20513;-70
2023/04/30 08:01:22;;;;;;;17.70;12.00;;;15.80;99.90;;;;;;4954127;28;20521;-70
2023/04/30 08:03:49;;;;;;;15.47;11.97;;;16.00;99.90;;;;;;4953598;28;20486;-70
2023/04/30 08:06:15;;;;;;;17.90;12.77;;;16.30;99.90;;;;;;4953592;28;20453;-69
2023/04/30 08:08:42;;;;;;;18.10;12.13;;;16.40;99.90;;;;;;4952935;28;20449;-69
2023/04/30 08:11:09;;;;;;;11.73;9.27;;;16.70;99.90;;;;;;4953151;28;20560;-69
2023/04/30 08:13:35;;;;;;;11.60;9.20;;;16.80;99.90;;;;;;4953753;28;20461;-69
2023/04/30 08:16:03;;;;;;;9.83;8.30;;;16.90;99.90;;;;;;4953149;28;20957;-70
2023/04/30 08:18:31;;;;;;;13.30;9.30;;;16.90;99.90;;;;;;4953594;28;20428;-70
2023/04/30 08:20:57;;;;;;;16.33;9.03;;;16.90;99.90;;;;;;4953375;28;20477;-69
2023/04/30 08:23:24;;;;;;;13.97;9.40;;;17.00;99.90;;;;;;4957881;28;21077;-70
2023/04/30 08:25:51;;;;;;;13.30;9.83;;;16.80;99.90;;;;;;4956407;28;20436;-70
2023/04/30 08:28:18;;;;;;;13.20;8.17;;;16.90;99.90;;;;;;4952550;28;20838;-70
2023/04/30 08:30:45;;;;;;;13.67;8.93;;;16.90;99.90;;;;;;4953050;28;20456;-69
2023/04/30 08:33:13;;;;;;;15.30;9.77;;;16.90;99.90;;;;;;4951837;28;20450;-70
2023/04/30 08:35:40;;;;;;;12.93;8.87;;;16.80;99.90;;;;;;4957007;28;20432;-70
2023/04/30 08:38:07;;;;;;;9.43;8.33;;;17.00;99.90;;;;;;4952945;28;21009;-70
2023/04/30 08:40:35;;;;;;;11.33;7.97;;;17.20;99.90;;;;;;4953302;28;20473;-70
2023/04/30 08:43:06;;;;;;;10.20;7.80;;;17.40;99.90;;;;;;4952859;28;20492;-70
2023/04/30 08:45:33;;;;;;;11.37;7.40;;;17.40;99.90;;;;;;4952311;28;20946;-70
2023/04/30 08:48:00;;;;;;;9.57;8.43;;;17.50;99.90;;;;;;4955384;28;20851;-69
2023/04/30 08:50:28;;;;;;;13.20;7.67;;;17.50;99.90;;;;;;4952866;28;20514;-70
2023/04/30 08:52:55;;;;;;;11.30;7.77;;;17.60;99.90;;;;;;4952884;28;20476;-69
2023/04/30 08:55:22;;;;;;;8.57;7.30;;;17.70;99.90;;;;;;4952591;28;20483;-70
2023/04/30 08:57:48;;;;;;;9.83;7.50;;;17.50;99.90;;;;;;4952148;28;20440;-69
2023/04/30 09:00:15;;;;;;;10.30;6.87;;;17.50;99.90;;;;;;4952300;28;20907;-70
2023/04/30 09:02:42;;;;;;;9.27;7.13;;;17.60;99.90;;;;;;4952864;28;20511;-70
2023/04/30 09:05:11;;;;;;;10.57;8.37;;;17.70;99.90;;;;;;4952154;28;20432;-69
2023/04/30 09:07:41;;;;;;;8.17;7.37;;;17.60;99.90;;;;;;4952782;28;20440;-68
2023/04/30 09:10:15;;;;;;;8.53;7.03;;;17.90;99.90;;;;;;4950322;28;20481;-68
2023/04/30 09:12:44;;;;;;;9.30;7.20;;;17.90;99.90;;;;;;4952461;28;21028;-69
2023/04/30 09:15:12;;;;;;;11.83;7.70;;;18.10;99.90;;;;;;4951701;28;20436;-69
2023/04/30 09:17:39;;;;;;;7.60;6.27;;;18.30;99.90;;;;;;4952347;28;20466;-69
2023/04/30 09:20:09;;;;;;;10.93;6.00;;;18.40;99.90;;;;;;4952466;28;20453;-68
2023/04/30 09:22:37;;;;;;;6.80;5.87;;;18.70;99.90;;;;;;4952443;28;20499;-68
2023/04/30 09:25:07;;;;;;;6.90;6.20;;;18.90;99.90;;;;;;4952118;28;20428;-68
2023/04/30 09:27:34;;;;;;;9.50;6.40;;;19.00;99.90;;;;;;4951965;28;21013;-68
2023/04/30 09:30:01;;;;;;;6.07;5.47;;;19.10;99.90;;;;;;4948707;28;20456;-68
2023/04/30 09:32:27;;;;;;;6.40;5.60;;;19.00;99.90;;;;;;4944745;28;20447;-69
2023/04/30 09:34:55;;;;;;;8.90;5.80;;;19.10;99.90;;;;;;4951292;28;20955;-69
2023/04/30 09:37:22;;;;;;;6.43;4.80;;;19.10;99.90;;;;;;4950816;28;20447;-69
2023/04/30 09:39:50;;;;;;;9.10;5.63;;;19.20;99.90;;;;;;4952248;28;20652;-69
2023/04/30 09:42:18;;;;;;;7.23;5.90;;;19.20;99.90;;;;;;4951952;28;20493;-70
2023/04/30 09:44:46;;;;;;;6.80;5.37;;;19.20;99.90;;;;;;4951930;28;20428;-69
2023/04/30 09:47:14;;;;;;;7.03;5.00;;;19.40;99.90;;;;;;4951825;28;20503;-69
2023/04/30 09:49:42;;;;;;;9.10;5.37;;;19.60;99.90;;;;;;4951798;28;20448;-69
2023/04/30 09:52:09;;;;;;;8.60;5.30;;;19.80;99.90;;;;;;4951536;28;20469;-69
2023/04/30 09:54:36;;;;;;;6.40;5.00;;;19.90;99.90;;;;;;4951986;28;20882;-70
2023/04/30 09:57:03;;;;;;;4.47;4.07;;;19.90;99.90;;;;;;4955513;28;20946;-69
2023/04/30 09:59:34;;;;;;;4.90;3.97;;;20.20;99.90;;;;;;4955082;28;21076;-71
2023/04/30 10:02:02;;;;;;;5.20;3.60;;;20.50;99.90;;;;;;4954025;28;20455;-69
2023/04/30 10:04:32;;;;;;;4.87;3.50;;;20.40;99.90;;;;;;4955751;28;20213;-70
2023/04/30 10:07:01;;;;;;;4.53;3.87;;;20.30;99.90;;;;;;4954377;28;20431;-69
2023/04/30 10:09:32;;;;;;;3.30;3.00;;;20.40;99.90;;;;;;4954170;28;20528;-69
2023/04/30 10:12:00;;;;;;;2.60;2.40;;;20.60;99.90;;;;;;4954994;28;20900;-68
2023/04/30 10:14:33;;;;;;;2.73;2.53;;;20.60;99.90;;;;;;4955511;28;20449;-69
2023/04/30 10:17:11;;;;;;;4.23;2.97;;;20.50;99.90;;;;;;4954409;28;20453;-69
2023/04/30 10:19:41;;;;;;;2.60;2.40;;;20.70;99.90;;;;;;4948291;28;20829;-69
2023/04/30 10:22:09;;;;;;;2.40;2.20;;;20.80;99.90;;;;;;4955060;28;20817;-69
2023/04/30 10:24:36;;;;;;;3.97;2.50;;;20.80;99.90;;;;;;4953913;28;20528;-68
2023/04/30 10:27:03;;;;;;;2.37;2.27;;;20.70;99.90;;;;;;4952759;28;20465;-69
2023/04/30 10:29:31;;;;;;;4.87;2.43;;;20.90;99.90;;;;;;4950184;28;20978;-69
2023/04/30 10:31:58;;;;;;;3.20;2.30;;;20.90;99.90;;;;;;4955485;28;20436;-69
2023/04/30 10:34:32;;;;;;;1.97;1.87;;;21.00;99.90;;;;;;4954453;28;20520;-68
2023/04/30 10:37:04;;;;;;;3.13;2.20;;;21.20;99.90;;;;;;4958130;28;20466;-67
2023/04/30 10:39:32;;;;;;;2.23;2.10;;;21.40;99.90;;;;;;4948120;28;20543;-67
2023/04/30 10:42:03;;;;;;;2.90;1.60;;;21.90;99.90;;;;;;4955222;28;20516;-67
2023/04/30 10:44:33;;;;;;;1.33;1.00;;;22.30;99.90;;;;;;4955122;28;20604;-67
2023/04/30 10:47:01;;;;;;;3.63;1.40;;;22.40;99.90;;;;;;4955316;28;20541;-67
2023/04/30 10:49:28;;;;;;;16.03;10.73;;;21.90;99.90;;;;;;4955298;28;20564;-67
2023/04/30 10:51:59;;;;;;;2.30;2.10;;;21.70;99.90;;;;;;4955047;28;20458;-67
2023/04/30 10:54:27;;;;;;;1.30;1.20;;;21.40;99.90;;;;;;4954179;28;20504;-67
2023/04/30 10:56:55;;;;;;;17.63;11.20;;;21.40;99.90;;;;;;4954453;28;20450;-67
2023/04/30 10:59:23;;;;;;;10.43;6.53;;;21.40;99.90;;;;;;4954005;28;20572;-67
2023/04/30 11:01:58;;;;;;;1.63;1.53;;;21.60;99.90;;;;;;4954992;28;20458;-66
2023/04/30 11:04:25;;;;;;;1.70;1.60;;;21.50;99.90;;;;;;4953824;28;20460;-67
2023/04/30 11:07:01;;;;;;;1.30;1.20;;;21.50;99.90;;;;;;4953908;28;20831;-68
2023/04/30 11:09:42;;;;;;;1.60;1.50;;;21.30;99.90;;;;;;4949872;28;20479;-68
2023/04/30 11:12:19;;;;;;;1.97;1.80;;;21.80;99.90;;;;;;4954684;28;20465;-67
2023/04/30 11:14:46;;;;;;;1.73;1.40;;;21.80;99.90;;;;;;4954579;28;20803;-67
2023/04/30 11:17:24;;;;;;;2.67;1.70;;;21.70;99.90;;;;;;4954334;28;20870;-67
2023/04/30 11:19:53;;;;;;;4.13;3.70;;;21.90;99.90;;;;;;4954169;28;20572;-67
2023/04/30 11:22:22;;;;;;;6.30;4.53;;;21.60;99.90;;;;;;4954819;28;20513;-67
2023/04/30 11:25:04;;;;;;;4.40;1.90;;;21.50;99.90;;;;;;4954075;28;20441;-67
2023/04/30 11:27:31;;;;;;;2.20;2.00;;;21.60;99.90;;;;;;4948058;28;20540;-67
2023/04/30 11:29:59;;;;;;;2.00;1.90;;;21.50;99.90;;;;;;4953687;28;20472;-67
2023/04/30 11:32:32;;;;;;;4.87;2.80;;;21.70;99.90;;;;;;4954236;28;20505;-67
2023/04/30 11:35:00;;;;;;;2.07;1.90;;;22.00;99.90;;;;;;4954066;28;20453;-67
2023/04/30 11:37:31;;;;;;;3.27;1.80;;;22.20;99.90;;;;;;4954277;28;20516;-67
2023/04/30 11:40:00;;;;;;;4.90;1.70;;;22.20;99.90;;;;;;4953860;28;20477;-67
2023/04/30 11:42:28;;;;;;;2.47;2.30;;;22.20;99.90;;;;;;4954037;28;20442;-67
2023/04/30 11:44:55;;;;;;;2.27;1.80;;;21.90;99.90;;;;;;4953402;28;20572;-67
2023/04/30 11:47:21;;;;;;;2.50;1.80;;;22.10;99.90;;;;;;4953836;28;20536;-66
2023/04/30 11:49:52;;;;;;;1.60;1.50;;;22.20;99.90;;;;;;4948468;28;20516;-67
2023/04/30 11:52:21;;;;;;;1.83;1.50;;;22.10;99.90;;;;;;4953866;28;20461;-67
2023/04/30 11:54:47;;;;;;;1.40;1.30;;;22.20;99.90;;;;;;4953878;28;21045;-68
2023/04/30 11:57:14;;;;;;;1.73;1.47;;;22.10;99.90;;;;;;4952289;28;20458;-67
2023/04/30 11:59:42;;;;;;;1.40;1.30;;;22.20;99.90;;;;;;4953962;28;20513;-67
2023/04/30 12:02:09;;;;;;;1.53;1.37;;;22.30;99.90;;;;;;4953647;28;20477;-67
2023/04/30 12:04:36;;;;;;;1.70;1.60;;;22.20;99.90;;;;;;4953534;28;20544;-68
2023/04/30 12:07:08;;;;;;;1.80;1.70;;;22.20;99.90;;;;;;4952850;28;20457;-67
2023/04/30 12:09:53;;;;;;;1.80;1.70;;;22.40;99.90;;;;;;4953226;28;20465;-67
2023/04/30 12:12:27;;;;;;;2.30;1.67;;;22.40;99.90;;;;;;4953396;28;20907;-67
2023/04/30 12:14:54;;;;;;;2.33;1.70;;;22.70;99.90;;;;;;4953358;28;20453;-68
2023/04/30 12:17:31;;;;;;;3.00;1.40;;;22.80;99.90;;;;;;4951921;28;20993;-68
2023/04/30 12:19:57;;;;;;;1.70;1.60;;;22.90;99.90;;;;;;4952822;28;20480;-67
2023/04/30 12:22:25;;;;;;;1.83;1.37;;;22.80;99.90;;;;;;4953279;28;20458;-68
2023/04/30 12:24:52;;;;;;;2.03;1.37;;;23.10;99.90;;;;;;4953071;28;20992;-68
2023/04/30 12:27:19;;;;;;;1.63;1.43;;;23.30;99.90;;;;;;4953346;28;20457;-68
2023/04/30 12:29:47;;;;;;;1.50;1.40;;;23.20;99.90;;;;;;4952801;28;20443;-69
2023/04/30 12:32:15;;;;;;;33.37;13.40;;;23.20;99.90;;;;;;4953336;28;20223;-69
2023/04/30 12:34:42;;;;;;;2.88;1.88;;;22.90;99.90;;;;;;4952576;28;20503;-68
2023/04/30 12:37:08;;;;;;;1.60;1.50;;;23.00;99.90;;;;;;4951649;28;20221;-67
2023/04/30 12:39:37;;;;;;;2.33;1.53;;;23.30;99.90;;;;;;4951995;28;20871;-68
2023/04/30 12:42:04;;;;;;;3.90;1.10;;;23.50;99.90;;;;;;4952040;28;20502;-69